createdAt,value
2022-12-04T00:01:23.881Z,17.02
2022-12-04T00:03:54.598Z,16.77
2022-12-04T00:06:22.520Z,17.30
2022-12-04T00:08:50.222Z,16.40
2022-12-04T00:11:24.899Z,15.73
2022-12-04T00:13:52.281Z,16.08
2022-12-04T00:16:20.762Z,16.45
2022-12-04T00:18:48.381Z,16.25
2022-12-04T00:21:16.319Z,15.23
2022-12-04T00:23:43.893Z,15.50
2022-12-04T00:26:12.134Z,15.73
2022-12-04T00:28:39.713Z,15.77
2022-12-04T00:31:08.221Z,15.02
2022-12-04T00:33:36.124Z,15.85
2022-12-04T00:36:05.251Z,15.45
2022-12-04T00:38:32.513Z,15.32
2022-12-04T00:41:00.939Z,14.30
2022-12-04T00:43:29.185Z,16.08
2022-12-04T00:45:56.656Z,14.55
2022-12-04T00:48:24.095Z,15.20
2022-12-04T00:50:51.487Z,15.20
2022-12-04T00:53:18.759Z,15.32
2022-12-04T00:55:46.030Z,16.00
2022-12-04T00:58:13.321Z,16.75
2022-12-04T01:00:42.022Z,15.52
2022-12-04T01:03:09.888Z,16.45
2022-12-04T01:05:41.252Z,16.08
2022-12-04T01:08:09.067Z,15.85
2022-12-04T01:10:38.671Z,15.77
2022-12-04T01:13:06.027Z,15.70
2022-12-04T01:15:33.269Z,14.60
2022-12-04T01:18:00.564Z,14.95
2022-12-04T01:20:27.821Z,14.63
2022-12-04T01:22:55.081Z,14.88
2022-12-04T01:25:22.330Z,14.95
2022-12-04T01:27:49.614Z,14.20
2022-12-04T01:30:17.076Z,14.95
2022-12-04T01:32:44.432Z,13.80
2022-12-04T01:35:11.749Z,15.75
2022-12-04T01:37:39.298Z,14.48
2022-12-04T01:40:07.283Z,15.45
2022-12-04T01:42:34.568Z,13.70
2022-12-04T01:45:20.674Z,13.70
2022-12-04T01:47:47.933Z,14.63
2022-12-04T01:50:15.396Z,14.30
2022-12-04T01:52:43.008Z,14.38
2022-12-04T01:55:10.247Z,13.60
2022-12-04T01:57:39.100Z,14.52
2022-12-04T02:00:09.018Z,13.60
2022-12-04T02:02:38.740Z,13.67
2022-12-04T02:05:07.450Z,12.25
2022-12-04T02:07:35.093Z,13.15
2022-12-04T02:10:06.678Z,12.93
2022-12-04T02:12:37.624Z,13.27
2022-12-04T02:15:14.129Z,14.18
2022-12-04T02:17:44.481Z,12.77
2022-12-04T02:20:27.424Z,14.05
2022-12-04T02:23:01.878Z,13.57
2022-12-04T02:25:47.853Z,14.38
2022-12-04T02:28:30.629Z,14.20
2022-12-04T02:30:59.686Z,12.88
2022-12-04T02:33:42.152Z,14.10
2022-12-04T02:36:12.143Z,13.55
2022-12-04T02:38:51.388Z,13.93
2022-12-04T02:41:24.828Z,13.05
2022-12-04T02:43:55.646Z,13.85
2022-12-04T02:48:51.203Z,13.50
2022-12-04T02:51:20.357Z,13.60
2022-12-04T02:53:50.969Z,12.45
2022-12-04T02:56:20.555Z,14.55
2022-12-04T02:58:47.786Z,13.23
2022-12-04T03:01:19.692Z,13.80
2022-12-04T03:03:50.576Z,13.90
2022-12-04T03:06:19.517Z,13.80
2022-12-04T03:08:59.744Z,14.18
2022-12-04T03:11:29.472Z,14.55
2022-12-04T03:14:02.837Z,13.45
2022-12-04T03:16:36.286Z,14.48
2022-12-04T03:19:07.372Z,14.07
2022-12-04T03:21:38.411Z,14.57
2022-12-04T03:24:09.793Z,14.45
2022-12-04T03:26:37.046Z,15.80
2022-12-04T03:29:12.647Z,14.75
2022-12-04T03:32:06.243Z,14.88
2022-12-04T03:34:36.228Z,15.85
2022-12-04T03:37:08.739Z,14.33
2022-12-04T03:39:39.326Z,15.05
2022-12-04T03:42:13.145Z,15.23
2022-12-04T03:44:53.877Z,15.63
2022-12-04T03:47:26.397Z,14.32
2022-12-04T03:50:00.697Z,15.32
2022-12-04T03:52:33.622Z,15.32
2022-12-04T03:55:02.965Z,16.08
2022-12-04T03:57:33.118Z,16.13
2022-12-04T04:00:08.168Z,17.17
2022-12-04T04:02:37.293Z,16.23
2022-12-04T04:05:07.228Z,15.95
2022-12-04T04:07:37.113Z,12.40
2022-12-04T04:10:07.278Z,15.82
2022-12-04T04:12:38.407Z,15.55
2022-12-04T04:15:28.016Z,15.90
2022-12-04T04:18:15.097Z,16.50
2022-12-04T04:21:03.599Z,15.20
2022-12-04T04:23:52.849Z,15.93
2022-12-04T04:26:20.154Z,14.73
2022-12-04T04:28:47.463Z,16.90
2022-12-04T04:31:23.249Z,16.40
2022-12-04T04:34:16.966Z,16.33
2022-12-04T04:36:52.331Z,17.52
2022-12-04T04:39:22.621Z,15.32
2022-12-04T04:42:16.264Z,16.42
2022-12-04T04:44:52.509Z,17.17
2022-12-04T04:47:25.491Z,17.02
2022-12-04T04:49:53.600Z,15.93
2022-12-04T04:52:22.662Z,17.73
2022-12-04T04:54:49.964Z,17.95
2022-12-04T04:57:27.328Z,17.27
2022-12-04T04:59:54.861Z,16.50
2022-12-04T05:02:22.397Z,17.77
2022-12-04T05:04:49.664Z,17.38
2022-12-04T05:07:16.898Z,17.15
2022-12-04T05:09:44.168Z,17.77
2022-12-04T05:12:11.397Z,18.52
2022-12-04T05:14:38.898Z,17.42
2022-12-04T05:17:12.383Z,17.85
2022-12-04T05:19:57.128Z,19.52
2022-12-04T05:22:26.962Z,16.45
2022-12-04T05:24:54.467Z,17.52
2022-12-04T05:27:22.355Z,18.88
2022-12-04T05:29:49.938Z,18.60
2022-12-04T05:32:17.161Z,18.77
2022-12-04T05:34:44.440Z,18.23
2022-12-04T05:37:11.659Z,19.67
2022-12-04T05:39:38.925Z,18.38
2022-12-04T05:42:06.280Z,17.80
2022-12-04T05:44:33.520Z,18.83
2022-12-04T05:47:00.851Z,18.52
2022-12-04T05:49:31.595Z,19.67
2022-12-04T05:51:59.067Z,18.23
2022-12-04T05:54:26.367Z,18.77
2022-12-04T05:56:53.633Z,20.73
2022-12-04T05:59:20.907Z,18.50
2022-12-04T06:01:48.371Z,20.38
2022-12-04T06:04:15.795Z,21.40
2022-12-04T06:06:43.092Z,20.35
2022-12-04T06:09:10.396Z,19.83
2022-12-04T06:11:38.610Z,19.70
2022-12-04T06:14:07.293Z,20.08
2022-12-04T06:16:36.393Z,18.83
2022-12-04T06:19:14.804Z,20.25
2022-12-04T06:21:42.862Z,20.38
2022-12-04T06:24:13.332Z,19.70
2022-12-04T06:26:57.509Z,20.23
2022-12-04T06:29:28.396Z,19.50
2022-12-04T06:31:55.978Z,19.55
2022-12-04T06:34:23.288Z,18.67
2022-12-04T06:36:50.573Z,18.55
2022-12-04T06:39:19.084Z,19.45
2022-12-04T06:41:47.728Z,19.10
2022-12-04T06:44:17.830Z,18.02
2022-12-04T06:46:47.119Z,19.53
2022-12-04T06:49:15.148Z,19.05
2022-12-04T06:51:42.401Z,18.85
2022-12-04T06:54:10.335Z,18.10
2022-12-04T06:56:37.591Z,19.23
2022-12-04T06:59:05.773Z,18.05
2022-12-04T07:01:34.558Z,18.48
2022-12-04T07:04:04.055Z,17.10
2022-12-04T07:06:35.695Z,18.50
2022-12-04T07:09:14.976Z,17.02
2022-12-04T07:11:43.333Z,18.17
2022-12-04T07:14:11.305Z,15.38
2022-12-04T07:16:41.329Z,16.48
2022-12-04T07:19:13.282Z,17.00
2022-12-04T07:21:40.820Z,17.23
2022-12-04T07:24:08.209Z,16.50
2022-12-04T07:26:35.537Z,17.75
2022-12-04T07:29:02.878Z,16.45
2022-12-04T07:31:30.740Z,16.58
2022-12-04T07:33:58.540Z,17.63
2022-12-04T07:36:26.455Z,16.45
2022-12-04T07:38:55.381Z,16.48
2022-12-04T07:41:22.961Z,15.85
2022-12-04T07:43:50.224Z,16.67
2022-12-04T07:46:19.167Z,15.65
2022-12-04T07:48:46.584Z,16.40
2022-12-04T07:51:21.090Z,15.55
2022-12-04T07:53:48.772Z,15.45
2022-12-04T07:56:16.456Z,15.35
2022-12-04T07:58:44.090Z,15.88
2022-12-04T08:01:21.663Z,15.43
2022-12-04T08:03:49.978Z,15.65
2022-12-04T08:06:21.024Z,14.98
2022-12-04T08:08:48.858Z,16.10
2022-12-04T08:11:17.477Z,16.15
2022-12-04T08:13:45.164Z,15.82
2022-12-04T08:16:12.989Z,16.20
2022-12-04T08:18:41.432Z,16.00
2022-12-04T08:21:10.081Z,16.73
2022-12-04T08:23:38.091Z,15.27
2022-12-04T08:26:05.888Z,16.23
2022-12-04T08:28:33.308Z,16.63
2022-12-04T08:31:08.168Z,16.92
2022-12-04T08:33:36.024Z,18.02
2022-12-04T08:36:06.409Z,15.88
2022-12-04T08:38:33.676Z,15.75
2022-12-04T08:41:01.514Z,16.27
2022-12-04T08:43:29.169Z,16.48
2022-12-04T08:45:57.667Z,16.65
2022-12-04T08:48:25.129Z,16.75
2022-12-04T08:50:52.377Z,15.98
2022-12-04T08:53:19.876Z,16.33
2022-12-04T08:55:47.446Z,16.88
2022-12-04T08:58:14.829Z,16.35
2022-12-04T09:00:42.172Z,16.75
2022-12-04T09:03:10.322Z,16.15
2022-12-04T09:05:37.574Z,16.60
2022-12-04T09:08:05.009Z,22.92
2022-12-04T09:10:34.430Z,17.05
2022-12-04T09:13:02.006Z,17.65
2022-12-04T09:15:29.538Z,19.42
2022-12-04T09:17:56.863Z,16.38
2022-12-04T09:20:24.124Z,17.67
2022-12-04T09:23:03.932Z,19.45
2022-12-04T09:25:31.594Z,18.93
2022-12-04T09:27:58.920Z,19.10
2022-12-04T09:30:26.284Z,21.75
2022-12-04T09:32:53.617Z,19.30
2022-12-04T09:35:20.968Z,18.50
2022-12-04T09:37:48.277Z,18.35
2022-12-04T09:40:42.408Z,18.77
2022-12-04T09:43:24.152Z,17.73
2022-12-04T09:45:54.442Z,17.92
2022-12-04T09:48:23.160Z,19.27
2022-12-04T09:50:51.216Z,18.67
2022-12-04T09:53:18.498Z,19.83
2022-12-04T09:55:55.803Z,19.83
2022-12-04T09:58:26.130Z,19.38
2022-12-04T10:00:53.846Z,19.75
2022-12-04T10:03:22.347Z,19.92
2022-12-04T10:06:02.434Z,19.65
2022-12-04T10:08:32.603Z,19.63
2022-12-04T10:11:18.743Z,20.73
2022-12-04T10:13:58.137Z,19.67
2022-12-04T10:16:29.488Z,20.75
2022-12-04T10:19:09.081Z,20.08
2022-12-04T10:21:45.453Z,21.45
2022-12-04T10:24:25.616Z,21.05
2022-12-04T10:26:55.717Z,21.60
2022-12-04T10:29:31.368Z,20.70
2022-12-04T10:32:02.515Z,21.75
2022-12-04T10:34:30.729Z,21.70
2022-12-04T10:37:10.358Z,41.92
2022-12-04T10:39:41.581Z,21.80
2022-12-04T10:42:17.710Z,21.00
2022-12-04T10:44:44.968Z,22.15
2022-12-04T10:47:13.088Z,21.60
2022-12-04T10:49:40.649Z,20.92
2022-12-04T10:52:07.908Z,21.25
2022-12-04T10:54:40.705Z,21.38
2022-12-04T10:57:10.341Z,21.98
2022-12-04T10:59:56.941Z,21.70
2022-12-04T11:02:32.905Z,20.25
2022-12-04T11:05:01.799Z,22.00
2022-12-04T11:07:30.371Z,21.55
2022-12-04T11:09:59.070Z,21.15
2022-12-04T11:12:26.795Z,21.80
2022-12-04T11:15:01.308Z,23.10
2022-12-04T11:17:28.928Z,22.15
2022-12-04T11:20:03.707Z,22.33
2022-12-04T11:22:31.986Z,21.63
2022-12-04T11:25:00.238Z,22.60
2022-12-04T11:27:32.612Z,21.85
2022-12-04T11:30:02.665Z,21.63
2022-12-04T11:32:32.334Z,22.33
2022-12-04T11:35:01.874Z,23.13
2022-12-04T11:37:31.188Z,22.73
2022-12-04T11:39:59.126Z,22.30
2022-12-04T11:42:29.079Z,22.65
2022-12-04T11:45:19.666Z,22.80
2022-12-04T11:47:55.989Z,20.15
2022-12-04T11:50:32.531Z,22.25
2022-12-04T11:53:07.464Z,22.25
2022-12-04T11:55:49.659Z,22.30
2022-12-04T11:58:29.142Z,21.85
2022-12-04T12:00:59.267Z,22.33
2022-12-04T12:03:26.684Z,21.10
2022-12-04T12:06:17.392Z,21.08
2022-12-04T12:09:03.561Z,21.38
2022-12-04T12:11:57.424Z,19.63
2022-12-04T12:14:24.800Z,21.17
2022-12-04T12:16:54.965Z,21.30
2022-12-04T12:19:31.503Z,20.83
2022-12-04T12:22:08.332Z,21.60
2022-12-04T12:24:46.976Z,21.40
2022-12-04T12:27:39.222Z,21.88
2022-12-04T12:30:12.439Z,20.85
2022-12-04T12:32:53.987Z,22.85
2022-12-04T12:35:40.289Z,21.00
2022-12-04T12:38:11.273Z,21.85
2022-12-04T12:43:14.244Z,21.65
2022-12-04T12:45:45.722Z,21.45
2022-12-04T12:48:35.347Z,26.20
2022-12-04T12:51:29.191Z,21.77
2022-12-04T12:53:56.367Z,21.95
2022-12-04T12:56:30.816Z,23.67
2022-12-04T12:58:59.561Z,22.60
2022-12-04T13:01:32.720Z,20.33
2022-12-04T13:04:00.057Z,21.20
2022-12-04T13:06:31.174Z,21.70
2022-12-04T13:09:16.474Z,22.77
2022-12-04T13:11:44.749Z,21.48
2022-12-04T13:14:13.177Z,21.45
2022-12-04T13:16:49.434Z,20.83
2022-12-04T13:19:16.680Z,21.27
2022-12-04T13:22:04.198Z,20.45
2022-12-04T13:24:35.155Z,21.35
2022-12-04T13:29:35.469Z,19.88
2022-12-04T13:32:27.200Z,21.58
2022-12-04T13:34:58.185Z,21.88
2022-12-04T13:37:44.135Z,21.70
2022-12-04T13:40:20.239Z,21.45
2022-12-04T13:42:47.529Z,20.67
2022-12-04T13:45:33.339Z,21.42
2022-12-04T13:48:02.315Z,20.23
2022-12-04T13:50:35.034Z,22.10
2022-12-04T13:53:02.560Z,21.30
2022-12-04T13:55:34.260Z,22.25
2022-12-04T13:58:03.086Z,21.38
2022-12-04T14:00:35.262Z,22.80
2022-12-04T14:03:07.864Z,21.73
2022-12-04T14:05:42.360Z,21.10
2022-12-04T14:08:25.986Z,22.05
2022-12-04T14:11:05.459Z,23.33
2022-12-04T14:13:50.048Z,20.95
2022-12-04T14:16:20.855Z,21.42
2022-12-04T14:18:53.077Z,21.35
2022-12-04T14:21:20.365Z,20.85
2022-12-04T14:23:47.796Z,21.00
2022-12-04T14:26:21.268Z,20.80
2022-12-04T14:28:49.031Z,21.13
2022-12-04T14:31:31.742Z,21.00
2022-12-04T14:33:59.008Z,20.23
2022-12-04T14:36:28.184Z,21.13
2022-12-04T14:39:08.480Z,20.55
2022-12-04T14:41:35.764Z,20.95
2022-12-04T14:44:03.141Z,20.27
2022-12-04T14:46:30.465Z,19.10
2022-12-04T14:49:16.430Z,20.50
2022-12-04T14:51:52.177Z,20.42
2022-12-04T14:54:38.148Z,19.23
2022-12-04T14:57:20.709Z,18.15
2022-12-04T14:59:49.197Z,19.55
2022-12-04T15:02:20.946Z,18.45
2022-12-04T15:04:49.803Z,19.05
2022-12-04T15:07:24.273Z,17.48
2022-12-04T15:10:11.219Z,19.38
2022-12-04T15:12:43.085Z,18.00
2022-12-04T15:15:26.826Z,17.27
2022-12-04T15:18:03.305Z,17.98
2022-12-04T15:20:38.681Z,19.45
2022-12-04T15:23:06.502Z,18.25
2022-12-04T15:25:41.385Z,18.92
2022-12-04T15:28:20.151Z,18.13
2022-12-04T15:30:48.707Z,19.15
2022-12-04T15:33:36.630Z,18.02
2022-12-04T15:36:09.195Z,17.27
2022-12-04T15:38:37.161Z,16.92
2022-12-04T15:41:04.453Z,17.20
2022-12-04T15:43:40.678Z,17.45
2022-12-04T15:46:24.684Z,18.00
2022-12-04T15:48:52.041Z,17.13
2022-12-04T15:51:22.012Z,18.17
2022-12-04T15:53:49.313Z,17.30
2022-12-04T15:56:24.774Z,16.60
2022-12-04T15:58:59.938Z,17.60
2022-12-04T16:01:27.686Z,17.08
2022-12-04T16:03:57.646Z,17.67
2022-12-04T16:06:27.679Z,18.92
2022-12-04T16:09:01.796Z,19.53
2022-12-04T16:11:31.079Z,20.80
2022-12-04T16:14:04.230Z,20.83
2022-12-04T16:16:31.667Z,21.27
2022-12-04T16:18:59.024Z,19.02
2022-12-04T16:21:30.147Z,17.67
2022-12-04T16:24:07.269Z,19.85
2022-12-04T16:26:34.904Z,19.00
2022-12-04T16:29:02.334Z,18.45
2022-12-04T16:31:29.778Z,19.48
2022-12-04T16:33:59.562Z,18.73
2022-12-04T16:36:26.852Z,17.73
2022-12-04T16:38:54.323Z,18.92
2022-12-04T16:41:21.889Z,18.73
2022-12-04T16:43:59.327Z,18.85
2022-12-04T16:46:27.645Z,18.83
2022-12-04T16:48:55.231Z,17.95
2022-12-04T16:51:24.230Z,18.08
2022-12-04T16:53:52.250Z,18.48
2022-12-04T16:56:20.061Z,19.17
2022-12-04T16:58:47.595Z,18.35
2022-12-04T17:01:29.058Z,19.92
2022-12-04T17:03:56.405Z,19.52
2022-12-04T17:06:23.704Z,18.77
2022-12-04T17:08:50.968Z,19.55
2022-12-04T17:11:18.371Z,19.65
2022-12-04T17:13:45.767Z,20.08
2022-12-04T17:16:15.039Z,18.25
2022-12-04T17:18:43.316Z,19.17
2022-12-04T17:21:11.732Z,17.77
2022-12-04T17:23:39.200Z,17.33
2022-12-04T17:26:08.482Z,18.83
2022-12-04T17:28:36.543Z,18.23
2022-12-04T17:31:06.206Z,17.60
2022-12-04T17:33:33.642Z,19.48
2022-12-04T17:36:00.896Z,18.38
2022-12-04T17:38:28.851Z,18.13
2022-12-04T17:41:00.258Z,17.83
2022-12-04T17:43:29.096Z,18.90
2022-12-04T17:45:56.934Z,16.17
2022-12-04T17:48:24.381Z,17.65
2022-12-04T17:50:51.777Z,17.95
2022-12-04T17:53:19.747Z,18.05
2022-12-04T17:55:47.038Z,18.17
2022-12-04T17:58:14.313Z,18.98
2022-12-04T18:00:41.629Z,19.48
2022-12-04T18:03:09.007Z,17.80
2022-12-04T18:05:36.289Z,18.27
2022-12-04T18:08:03.579Z,18.38
2022-12-04T18:10:31.085Z,17.17
2022-12-04T18:12:58.364Z,18.02
2022-12-04T18:15:25.625Z,18.45
2022-12-04T18:17:52.935Z,19.65
2022-12-04T18:20:20.185Z,19.50
2022-12-04T18:22:47.448Z,20.00
2022-12-04T18:25:14.712Z,18.85
2022-12-04T18:27:42.320Z,19.13
2022-12-04T18:30:10.104Z,19.00
2022-12-04T18:32:37.409Z,19.23
2022-12-04T18:35:04.776Z,19.33
2022-12-04T18:37:34.121Z,21.80
2022-12-04T18:40:06.380Z,27.42
2022-12-04T18:42:34.204Z,19.98
2022-12-04T18:45:01.425Z,20.00
2022-12-04T18:47:29.334Z,21.13
2022-12-04T18:49:56.857Z,20.38
2022-12-04T18:52:24.357Z,20.20
2022-12-04T18:54:51.619Z,20.90
2022-12-04T18:57:18.851Z,20.80
2022-12-04T18:59:48.971Z,20.50
2022-12-04T19:02:16.282Z,21.20
2022-12-04T19:04:44.077Z,20.77
2022-12-04T19:07:11.367Z,22.50
2022-12-04T19:10:10.045Z,21.75
2022-12-04T19:12:25.939Z,20.88
2022-12-04T19:14:53.172Z,21.67
2022-12-04T19:17:20.997Z,21.30
2022-12-04T19:19:48.422Z,21.10
2022-12-04T19:22:15.765Z,22.00
2022-12-04T19:24:43.100Z,23.10
2022-12-04T19:27:12.200Z,22.55
2022-12-04T19:29:40.613Z,22.30
2022-12-04T19:32:08.293Z,22.80
2022-12-04T19:34:35.883Z,22.27
2022-12-04T19:37:03.458Z,22.63
2022-12-04T19:39:30.736Z,22.77
2022-12-04T19:41:58.269Z,22.92
2022-12-04T19:44:47.836Z,24.10
2022-12-04T19:47:12.773Z,25.08
2022-12-04T19:49:40.072Z,24.20
2022-12-04T19:52:07.452Z,24.13
2022-12-04T19:54:34.716Z,23.58
2022-12-04T19:57:01.931Z,25.20
2022-12-04T19:59:34.624Z,23.90
2022-12-04T20:02:03.819Z,22.38
2022-12-04T20:04:31.055Z,24.75
2022-12-04T20:06:58.289Z,23.65
2022-12-04T20:09:25.644Z,23.80
2022-12-04T20:11:53.729Z,24.90
2022-12-04T20:14:21.233Z,24.73
2022-12-04T20:16:48.710Z,24.70
2022-12-04T20:19:17.237Z,25.65
2022-12-04T20:21:45.244Z,26.55
2022-12-04T20:24:16.417Z,25.23
2022-12-04T20:26:44.656Z,27.08
2022-12-04T20:29:15.286Z,25.73
2022-12-04T20:31:44.445Z,25.50
2022-12-04T20:34:14.075Z,26.30
2022-12-04T20:36:42.744Z,25.83
2022-12-04T20:39:10.625Z,26.52
2022-12-04T20:41:38.331Z,26.02
2022-12-04T20:44:06.400Z,25.80
2022-12-04T20:46:35.239Z,27.13
2022-12-04T20:49:04.392Z,27.00
2022-12-04T20:51:32.952Z,26.38
2022-12-04T20:54:00.928Z,28.10
2022-12-04T20:56:30.226Z,28.50
2022-12-04T20:58:58.304Z,26.58
2022-12-04T21:01:26.135Z,26.63
2022-12-04T21:03:53.720Z,25.92
2022-12-04T21:06:22.628Z,26.30
2022-12-04T21:08:57.050Z,26.83
2022-12-04T21:11:25.240Z,24.33
2022-12-04T21:14:11.191Z,26.85
2022-12-04T21:16:39.032Z,24.80
2022-12-04T21:19:07.338Z,24.65
2022-12-04T21:21:36.303Z,25.75
2022-12-04T21:24:04.084Z,26.25
2022-12-04T21:26:31.549Z,25.83
2022-12-04T21:28:59.148Z,25.15
2022-12-04T21:31:28.909Z,25.10
2022-12-04T21:33:56.722Z,19.77
2022-12-04T21:36:24.225Z,26.10
2022-12-04T21:38:51.618Z,25.45
2022-12-04T21:41:37.843Z,25.77
2022-12-04T21:44:05.756Z,29.77
2022-12-04T21:46:33.063Z,24.02
2022-12-04T21:49:00.530Z,24.75
2022-12-04T21:51:55.878Z,23.38
2022-12-04T21:54:15.381Z,23.55
2022-12-04T21:56:42.720Z,24.20
2022-12-04T21:59:10.373Z,23.27
2022-12-04T22:01:40.026Z,24.63
2022-12-04T22:04:07.361Z,23.92
2022-12-04T22:06:36.368Z,24.17
2022-12-04T22:09:04.992Z,25.52
2022-12-04T22:11:32.219Z,26.40
2022-12-04T22:13:59.489Z,27.80
2022-12-04T22:16:30.235Z,27.90
2022-12-04T22:18:58.936Z,86.10
2022-12-04T22:21:26.610Z,27.35
2022-12-04T22:24:01.230Z,27.23
2022-12-04T22:26:29.618Z,25.38
2022-12-04T22:28:57.665Z,25.83
2022-12-04T22:31:26.729Z,25.70
2022-12-04T22:33:55.238Z,26.33
2022-12-04T22:36:23.861Z,24.83
2022-12-04T22:39:09.685Z,23.00
2022-12-04T22:41:38.053Z,24.65
2022-12-04T22:44:05.580Z,25.98
2022-12-04T22:46:33.114Z,24.08
2022-12-04T22:49:00.699Z,22.35
2022-12-04T22:51:28.563Z,22.58
2022-12-04T22:53:57.296Z,22.25
2022-12-04T22:56:25.698Z,22.55
2022-12-04T22:58:53.252Z,22.45
2022-12-04T23:01:24.806Z,22.00
2022-12-04T23:03:52.472Z,24.05
2022-12-04T23:06:20.830Z,23.20
2022-12-04T23:08:48.572Z,26.10
2022-12-04T23:11:17.322Z,26.50
2022-12-04T23:13:45.062Z,24.45
2022-12-04T23:16:16.911Z,25.35
2022-12-04T23:18:47.148Z,24.80
2022-12-04T23:21:15.423Z,25.75
2022-12-04T23:23:44.131Z,23.73
2022-12-04T23:26:12.873Z,23.70
2022-12-04T23:28:40.184Z,25.13
2022-12-04T23:31:07.565Z,23.52
2022-12-04T23:33:34.893Z,25.02
2022-12-04T23:36:02.661Z,24.48
2022-12-04T23:38:30.641Z,25.23
2022-12-04T23:41:04.996Z,25.98
2022-12-04T23:43:32.266Z,24.38
2022-12-04T23:45:59.657Z,24.30
2022-12-04T23:48:27.322Z,25.20
2022-12-04T23:50:54.828Z,24.23
2022-12-04T23:53:22.288Z,24.23
2022-12-04T23:55:58.352Z,26.33
2022-12-04T23:58:26.089Z,25.77
